createdAt,value
2018-07-19T00:02:15.158Z,65.54
2018-07-19T00:04:45.160Z,65.47
2018-07-19T00:07:15.244Z,65.06
2018-07-19T00:09:44.611Z,64.91
2018-07-19T00:12:14.169Z,65.22
2018-07-19T00:14:43.562Z,64.89
2018-07-19T00:17:13.093Z,65.27
2018-07-19T00:19:42.484Z,65.09
2018-07-19T00:22:11.653Z,65.02
2018-07-19T00:24:41.083Z,64.62
2018-07-19T00:27:10.396Z,64.29
2018-07-19T00:29:40.207Z,64.38
2018-07-19T00:32:09.589Z,64.14
2018-07-19T00:34:38.950Z,64.17
2018-07-19T00:37:08.457Z,64.81
2018-07-19T00:39:47.594Z,64.16
2018-07-19T00:42:17.003Z,64.59
2018-07-19T00:44:46.306Z,64.73
2018-07-19T00:47:15.642Z,64.16
2018-07-19T00:49:45.438Z,64.37
2018-07-19T00:52:14.770Z,64.41
2018-07-19T00:54:44.121Z,64.72
2018-07-19T00:57:13.484Z,64.78
2018-07-19T00:59:43.822Z,65.73
2018-07-19T01:02:13.191Z,64.96
2018-07-19T01:04:42.603Z,64.87
2018-07-19T01:07:11.923Z,64.39
2018-07-19T01:09:41.285Z,64.68
2018-07-19T01:12:11.046Z,64.63
2018-07-19T01:14:40.566Z,65.22
2018-07-19T01:17:09.879Z,65.59
2018-07-19T01:19:39.273Z,65.49
2018-07-19T01:22:08.539Z,65.73
2018-07-19T01:24:37.883Z,64.89
2018-07-19T01:27:07.421Z,64.99
2018-07-19T01:29:36.887Z,64.98
2018-07-19T01:32:06.202Z,64.63
2018-07-19T01:34:35.958Z,63.98
2018-07-19T01:37:05.893Z,63.78
2018-07-19T01:39:35.378Z,63.87
2018-07-19T01:42:31.690Z,64.17
2018-07-19T01:45:01.021Z,65.14
2018-07-19T01:47:30.410Z,64.30
2018-07-19T01:49:59.997Z,63.75
2018-07-19T01:52:29.335Z,63.65
2018-07-19T01:54:58.655Z,64.36
2018-07-19T01:57:27.957Z,64.64
2018-07-19T01:59:57.324Z,64.30
2018-07-19T02:02:26.599Z,64.53
2018-07-19T02:04:55.955Z,64.63
2018-07-19T02:07:25.278Z,64.00
2018-07-19T02:09:54.549Z,64.80
2018-07-19T02:12:24.333Z,63.42
2018-07-19T02:14:53.689Z,63.58
2018-07-19T02:17:22.979Z,63.96
2018-07-19T02:19:52.336Z,63.38
2018-07-19T02:22:21.629Z,63.41
2018-07-19T02:24:51.051Z,64.72
2018-07-19T02:27:20.314Z,64.33
2018-07-19T02:29:49.602Z,63.91
2018-07-19T02:32:18.901Z,64.04
2018-07-19T02:34:48.618Z,63.24
2018-07-19T02:37:17.897Z,64.24
2018-07-19T02:39:47.143Z,64.33
2018-07-19T02:42:16.466Z,64.33
2018-07-19T02:44:45.727Z,65.00
2018-07-19T02:47:15.003Z,64.44
2018-07-19T02:49:44.298Z,64.38
2018-07-19T02:52:13.668Z,65.00
2018-07-19T02:54:43.205Z,65.00
2018-07-19T02:57:12.993Z,65.16
2018-07-19T02:59:42.294Z,64.42
2018-07-19T03:02:11.649Z,64.73
2018-07-19T03:04:40.970Z,64.86
2018-07-19T03:07:10.272Z,64.74
2018-07-19T03:09:39.535Z,64.48
2018-07-19T03:12:08.919Z,65.01
2018-07-19T03:14:38.957Z,65.43
2018-07-19T03:17:08.247Z,65.02
2018-07-19T03:19:37.659Z,64.73
2018-07-19T03:22:07.288Z,64.74
2018-07-19T03:24:36.581Z,65.20
2018-07-19T03:27:05.918Z,64.97
2018-07-19T03:29:35.194Z,65.28
2018-07-19T03:32:04.504Z,65.64
2018-07-19T03:34:33.784Z,65.53
2018-07-19T03:37:03.054Z,64.81
2018-07-19T03:39:32.351Z,65.55
2018-07-19T03:42:01.746Z,65.48
2018-07-19T03:44:31.047Z,64.80
2018-07-19T03:47:00.095Z,64.87
2018-07-19T03:49:29.396Z,65.50
2018-07-19T03:51:58.675Z,65.44
2018-07-19T03:54:28.019Z,65.66
2018-07-19T03:56:57.525Z,64.53
2018-07-19T03:59:26.826Z,64.55
2018-07-19T04:01:56.113Z,64.96
2018-07-19T04:04:25.766Z,64.54
2018-07-19T04:06:55.089Z,64.81
2018-07-19T04:09:24.399Z,64.97
2018-07-19T04:11:53.723Z,64.89
2018-07-19T04:14:23.258Z,64.56
2018-07-19T04:16:52.522Z,64.08
2018-07-19T04:19:21.839Z,63.36
2018-07-19T04:21:51.105Z,63.49
2018-07-19T04:24:20.458Z,63.15
2018-07-19T04:26:50.294Z,63.41
2018-07-19T04:29:21.209Z,62.33
2018-07-19T04:31:50.513Z,61.84
2018-07-19T04:34:19.861Z,62.66
2018-07-19T04:36:49.214Z,62.76
2018-07-19T04:39:18.577Z,62.68
2018-07-19T04:41:47.859Z,62.56
2018-07-19T04:44:17.170Z,62.84
2018-07-19T04:46:46.750Z,62.32
2018-07-19T04:49:16.348Z,61.78
2018-07-19T04:51:45.421Z,61.72
2018-07-19T04:54:14.757Z,62.03
2018-07-19T04:56:43.831Z,61.09
2018-07-19T04:59:13.129Z,61.09
2018-07-19T05:01:42.460Z,61.33
2018-07-19T05:04:11.490Z,60.05
2018-07-19T05:06:40.801Z,60.06
2018-07-19T05:09:11.703Z,59.71
2018-07-19T05:11:40.998Z,59.73
2018-07-19T05:14:10.334Z,59.40
2018-07-19T05:16:39.786Z,59.44
2018-07-19T05:19:09.071Z,59.01
2018-07-19T05:21:38.400Z,58.19
2018-07-19T05:24:07.856Z,59.17
2018-07-19T05:26:37.161Z,58.61
2018-07-19T05:29:06.487Z,58.67
2018-07-19T05:31:35.990Z,58.22
2018-07-19T05:34:05.333Z,58.13
2018-07-19T05:36:34.627Z,57.41
2018-07-19T05:39:05.807Z,57.38
2018-07-19T05:41:35.094Z,56.84
2018-07-19T05:44:04.414Z,56.46
2018-07-19T05:46:33.778Z,56.66
2018-07-19T05:49:02.861Z,56.51
2018-07-19T05:51:32.202Z,56.96
2018-07-19T05:54:01.631Z,57.10
2018-07-19T05:56:30.961Z,56.28
2018-07-19T05:59:01.338Z,55.91
2018-07-19T06:01:30.681Z,56.41
2018-07-19T06:04:00.015Z,56.30
2018-07-19T06:06:29.318Z,55.61
2018-07-19T06:08:58.633Z,57.08
2018-07-19T06:11:28.015Z,55.92
2018-07-19T06:13:57.109Z,56.07
2018-07-19T06:16:26.848Z,56.40
2018-07-19T06:18:56.142Z,56.50
2018-07-19T06:21:25.436Z,56.14
2018-07-19T06:23:54.789Z,55.96
2018-07-19T06:26:24.145Z,55.81
2018-07-19T06:28:53.453Z,55.17
2018-07-19T06:31:22.843Z,55.78
2018-07-19T06:33:52.114Z,53.90
2018-07-19T06:36:21.518Z,54.89
2018-07-19T06:38:50.947Z,54.89
2018-07-19T06:41:20.351Z,55.07
2018-07-19T06:43:49.687Z,53.81
2018-07-19T06:46:19.099Z,53.69
2018-07-19T06:48:48.456Z,53.49
2018-07-19T06:51:17.756Z,51.46
2018-07-19T06:53:47.109Z,51.90
2018-07-19T06:56:16.441Z,51.13
2018-07-19T06:58:45.762Z,50.77
2018-07-19T07:01:15.568Z,50.31
2018-07-19T07:03:44.869Z,51.54
2018-07-19T07:06:14.293Z,51.64
2018-07-19T07:08:43.635Z,51.05
2018-07-19T07:11:12.973Z,50.92
2018-07-19T07:13:42.275Z,50.26
2018-07-19T07:16:11.651Z,49.91
2018-07-19T07:18:40.891Z,49.49
2018-07-19T07:21:10.228Z,49.69
2018-07-19T07:23:39.594Z,49.04
2018-07-19T07:26:08.877Z,49.25
2018-07-19T07:28:42.783Z,48.28
2018-07-19T07:31:12.336Z,48.13
2018-07-19T07:33:41.607Z,46.95
2018-07-19T07:36:10.915Z,46.37
2018-07-19T07:38:40.206Z,46.61
2018-07-19T07:41:09.485Z,46.49
2018-07-19T07:43:39.222Z,46.60
2018-07-19T07:46:08.583Z,45.33
2018-07-19T07:48:37.909Z,45.71
2018-07-19T07:51:07.222Z,44.86
2018-07-19T07:53:36.582Z,45.89
2018-07-19T07:56:05.939Z,45.61
2018-07-19T07:58:35.280Z,45.18
2018-07-19T08:01:04.547Z,44.17
2018-07-19T08:03:33.887Z,43.56
2018-07-19T08:06:03.951Z,43.31
2018-07-19T08:08:33.278Z,43.15
2018-07-19T08:11:02.604Z,41.82
2018-07-19T08:13:32.012Z,42.67
2018-07-19T08:16:01.351Z,42.12
2018-07-19T08:18:30.692Z,42.89
2018-07-19T08:21:00.071Z,42.47
2018-07-19T08:23:29.438Z,42.33
2018-07-19T08:25:58.741Z,41.54
2018-07-19T08:28:28.551Z,41.57
2018-07-19T08:30:58.033Z,41.68
2018-07-19T08:33:27.349Z,40.48
2018-07-19T08:35:56.816Z,39.53
2018-07-19T08:38:26.223Z,38.86
2018-07-19T08:40:55.605Z,39.16
2018-07-19T08:43:29.873Z,37.44
2018-07-19T08:45:59.193Z,37.25
2018-07-19T08:48:28.478Z,37.90
2018-07-19T08:50:57.834Z,36.56
2018-07-19T08:53:27.112Z,37.24
2018-07-19T08:55:56.478Z,37.87
2018-07-19T08:58:25.822Z,36.95
2018-07-19T09:00:55.184Z,37.67
2018-07-19T09:03:24.508Z,36.13
2018-07-19T09:05:54.288Z,34.93
2018-07-19T09:08:23.596Z,35.87
2018-07-19T09:10:52.927Z,36.26
2018-07-19T09:13:22.271Z,37.12
2018-07-19T09:15:51.557Z,36.68
2018-07-19T09:18:20.851Z,35.80
2018-07-19T09:20:50.154Z,36.03
2018-07-19T09:23:19.725Z,36.19
2018-07-19T09:25:49.057Z,34.36
2018-07-19T09:28:18.865Z,34.11
2018-07-19T09:30:48.208Z,33.59
2018-07-19T09:33:17.515Z,33.29
2018-07-19T09:35:46.919Z,34.53
2018-07-19T09:38:16.370Z,33.35
2018-07-19T09:40:45.628Z,33.29
2018-07-19T09:43:15.159Z,34.17
2018-07-19T09:45:44.478Z,33.67
2018-07-19T09:48:13.839Z,33.08
2018-07-19T09:50:43.632Z,31.56
2018-07-19T09:53:12.920Z,31.86
2018-07-19T09:55:42.300Z,31.39
2018-07-19T09:58:11.773Z,31.30
2018-07-19T10:00:46.413Z,32.49
2018-07-19T10:03:15.807Z,30.57
2018-07-19T10:05:45.155Z,30.61
2018-07-19T10:08:14.427Z,30.41
2018-07-19T10:10:44.050Z,31.40
2018-07-19T10:13:13.421Z,31.50
2018-07-19T10:15:42.747Z,30.68
2018-07-19T10:18:12.121Z,30.73
2018-07-19T10:20:41.424Z,29.81
2018-07-19T10:23:10.686Z,30.39
2018-07-19T10:25:39.995Z,29.67
2018-07-19T10:28:09.387Z,30.15
2018-07-19T10:30:38.760Z,30.22
2018-07-19T10:33:08.900Z,29.57
2018-07-19T10:35:38.313Z,29.67
2018-07-19T10:38:07.608Z,27.84
2018-07-19T10:40:36.940Z,28.12
2018-07-19T10:43:06.294Z,28.11
2018-07-19T10:45:35.596Z,27.83
2018-07-19T10:48:05.007Z,26.74
2018-07-19T10:50:34.359Z,27.55
2018-07-19T10:53:03.669Z,26.61
2018-07-19T10:55:33.144Z,27.77
2018-07-19T10:58:02.202Z,27.38
2018-07-19T11:00:31.488Z,27.95
2018-07-19T11:03:00.859Z,27.83
2018-07-19T11:05:30.166Z,28.68
2018-07-19T11:07:59.476Z,27.96
2018-07-19T11:10:28.808Z,27.39
2018-07-19T11:12:58.097Z,27.44
2018-07-19T11:15:27.508Z,27.72
2018-07-19T11:17:57.759Z,27.34
2018-07-19T11:20:27.061Z,26.46
2018-07-19T11:22:56.386Z,26.10
2018-07-19T11:25:25.747Z,26.03
2018-07-19T11:27:55.103Z,26.17
2018-07-19T11:30:24.545Z,25.89
2018-07-19T11:32:53.840Z,25.68
2018-07-19T11:35:23.141Z,26.12
2018-07-19T11:37:52.422Z,25.62
2018-07-19T11:40:22.459Z,24.24
2018-07-19T11:42:51.786Z,24.71
2018-07-19T11:45:21.205Z,25.53
2018-07-19T11:47:50.305Z,23.92
2018-07-19T11:50:19.734Z,25.16
2018-07-19T11:52:49.899Z,24.62
2018-07-19T11:55:19.249Z,24.43
2018-07-19T11:57:48.639Z,23.74
2018-07-19T12:00:17.902Z,24.91
2018-07-19T12:02:47.623Z,24.86
2018-07-19T12:05:16.908Z,25.28
2018-07-19T12:07:46.188Z,25.88
2018-07-19T12:10:15.519Z,24.96
2018-07-19T12:12:44.823Z,24.99
2018-07-19T12:15:14.156Z,24.37
2018-07-19T12:17:43.495Z,25.25
2018-07-19T12:20:13.023Z,24.32
2018-07-19T12:22:42.379Z,24.50
2018-07-19T12:25:12.007Z,24.76
2018-07-19T12:27:41.297Z,24.12
2018-07-19T12:30:10.619Z,25.43
2018-07-19T12:32:39.974Z,26.05
2018-07-19T12:35:09.259Z,26.15
2018-07-19T12:37:38.570Z,25.66
2018-07-19T12:40:07.938Z,25.03
2018-07-19T12:42:37.598Z,25.03
2018-07-19T12:45:06.920Z,24.40
2018-07-19T12:47:36.717Z,24.18
2018-07-19T12:50:06.059Z,25.25
2018-07-19T12:52:35.658Z,25.14
2018-07-19T12:55:04.956Z,23.82
2018-07-19T12:57:34.250Z,24.39
2018-07-19T13:00:03.610Z,24.99
2018-07-19T13:02:32.950Z,24.61
2018-07-19T13:05:02.270Z,24.50
2018-07-19T13:07:32.120Z,25.06
2018-07-19T13:10:02.685Z,25.84
2018-07-19T13:12:32.540Z,25.34
2018-07-19T13:15:01.915Z,25.45
2018-07-19T13:17:31.579Z,24.91
2018-07-19T13:20:00.971Z,26.17
2018-07-19T13:22:30.509Z,26.39
2018-07-19T13:25:00.100Z,25.38
2018-07-19T13:27:29.451Z,24.58
2018-07-19T13:29:58.758Z,24.44
2018-07-19T13:32:28.355Z,26.56
2018-07-19T13:34:57.800Z,25.18
2018-07-19T13:37:27.061Z,24.19
2018-07-19T13:39:56.411Z,24.47
2018-07-19T13:42:25.926Z,24.35
2018-07-19T13:44:55.250Z,25.52
2018-07-19T13:47:24.599Z,25.79
2018-07-19T13:49:53.918Z,26.52
2018-07-19T13:52:39.343Z,25.78
2018-07-19T13:55:08.743Z,25.44
2018-07-19T13:57:38.022Z,25.27
2018-07-19T14:00:07.336Z,24.55
2018-07-19T14:02:36.619Z,26.03
2018-07-19T14:05:06.623Z,24.88
2018-07-19T14:07:36.511Z,25.09
2018-07-19T14:10:06.357Z,25.26
2018-07-19T14:12:35.652Z,25.03
2018-07-19T14:15:06.627Z,25.40
2018-07-19T14:17:35.995Z,25.30
2018-07-19T14:20:05.484Z,24.98
2018-07-19T14:22:34.581Z,24.62
2018-07-19T14:25:03.936Z,25.67
2018-07-19T14:27:33.052Z,25.78
2018-07-19T14:30:02.407Z,25.48
2018-07-19T14:32:31.716Z,25.51
2018-07-19T14:35:01.038Z,25.54
2018-07-19T14:37:30.618Z,24.33
2018-07-19T14:39:59.958Z,26.09
2018-07-19T14:42:29.330Z,26.39
2018-07-19T14:44:58.696Z,25.46
2018-07-19T14:47:27.998Z,25.93
2018-07-19T14:49:57.344Z,25.74
2018-07-19T14:52:27.016Z,25.74
2018-07-19T14:54:56.315Z,25.54
2018-07-19T14:57:25.575Z,26.73
2018-07-19T14:59:55.151Z,26.60
2018-07-19T15:02:24.545Z,26.15
2018-07-19T15:04:53.808Z,26.04
2018-07-19T15:07:23.267Z,26.17
2018-07-19T15:09:52.833Z,26.31
2018-07-19T15:12:22.146Z,26.93
2018-07-19T15:14:51.505Z,27.46
2018-07-19T15:17:20.798Z,27.19
2018-07-19T15:19:50.163Z,26.86
2018-07-19T15:22:20.006Z,26.75
2018-07-19T15:24:49.374Z,26.65
2018-07-19T15:27:18.683Z,26.31
2018-07-19T15:29:47.991Z,27.97
2018-07-19T15:32:17.340Z,27.79
2018-07-19T15:34:46.666Z,27.57
2018-07-19T15:37:16.019Z,27.29
2018-07-19T15:39:45.675Z,27.90
2018-07-19T15:42:14.983Z,29.01
2018-07-19T15:44:44.425Z,28.97
2018-07-19T15:47:13.746Z,27.65
2018-07-19T15:49:43.111Z,27.54
2018-07-19T15:52:12.408Z,27.34
2018-07-19T15:54:41.838Z,28.50
2018-07-19T15:57:11.237Z,28.36
2018-07-19T15:59:40.594Z,28.14
2018-07-19T16:02:09.937Z,27.96
2018-07-19T16:04:39.311Z,27.86
2018-07-19T16:07:09.001Z,28.77
2018-07-19T16:09:38.323Z,27.84
2018-07-19T16:12:07.714Z,29.12
2018-07-19T16:14:37.215Z,29.19
2018-07-19T16:17:07.023Z,28.18
2018-07-19T16:19:36.339Z,29.02
2018-07-19T16:22:05.705Z,28.88
2018-07-19T16:24:35.087Z,28.66
2018-07-19T16:27:04.503Z,27.75
2018-07-19T16:29:33.986Z,28.18
2018-07-19T16:32:03.350Z,28.84
2018-07-19T16:34:32.727Z,28.73
2018-07-19T16:37:02.355Z,29.76
2018-07-19T16:39:31.668Z,29.35
2018-07-19T16:42:01.102Z,29.74
2018-07-19T16:44:30.500Z,29.08
2018-07-19T16:46:59.830Z,29.92
2018-07-19T16:49:29.168Z,29.39
2018-07-19T16:51:58.916Z,29.25
2018-07-19T16:54:28.250Z,30.69
2018-07-19T16:56:57.558Z,30.61
2018-07-19T16:59:26.902Z,30.96
2018-07-19T17:01:56.210Z,31.02
2018-07-19T17:04:25.700Z,30.30
2018-07-19T17:06:55.013Z,29.98
2018-07-19T17:09:24.371Z,30.96
2018-07-19T17:11:53.739Z,30.88
2018-07-19T17:14:23.686Z,31.95
2018-07-19T17:16:53.068Z,30.52
2018-07-19T17:19:22.395Z,31.71
2018-07-19T17:21:51.703Z,31.83
2018-07-19T17:24:20.982Z,32.46
2018-07-19T17:26:50.262Z,31.82
2018-07-19T17:29:19.604Z,32.93
2018-07-19T17:31:48.968Z,33.03
2018-07-19T17:34:18.287Z,31.89
2018-07-19T17:36:48.012Z,32.42
2018-07-19T17:39:17.502Z,32.58
2018-07-19T17:41:46.810Z,32.09
2018-07-19T17:44:16.138Z,32.18
2018-07-19T17:46:45.517Z,32.42
2018-07-19T17:49:14.894Z,33.01
2018-07-19T17:51:44.332Z,33.22
2018-07-19T17:54:13.717Z,33.29
2018-07-19T17:56:43.068Z,33.25
2018-07-19T17:59:12.851Z,33.36
2018-07-19T18:01:41.930Z,32.87
2018-07-19T18:04:11.263Z,33.45
2018-07-19T18:06:40.635Z,33.82
2018-07-19T18:09:11.305Z,33.35
2018-07-19T18:11:41.982Z,33.15
2018-07-19T18:14:11.406Z,33.98
2018-07-19T18:16:40.746Z,33.52
2018-07-19T18:19:10.422Z,34.26
2018-07-19T18:21:39.899Z,33.87
2018-07-19T18:24:09.184Z,34.96
2018-07-19T18:26:38.547Z,34.68
2018-07-19T18:29:08.166Z,34.74
2018-07-19T18:31:37.611Z,34.36
2018-07-19T18:34:07.259Z,34.94
2018-07-19T18:36:36.667Z,34.13
2018-07-19T18:39:10.621Z,35.15
2018-07-19T18:41:40.260Z,35.70
2018-07-19T18:44:09.989Z,35.42
2018-07-19T18:46:39.462Z,35.58
2018-07-19T18:49:08.848Z,35.90
2018-07-19T18:51:38.198Z,35.00
2018-07-19T18:54:07.564Z,35.22
2018-07-19T18:56:36.834Z,35.61
2018-07-19T18:59:06.254Z,36.02
2018-07-19T19:01:36.118Z,36.25
2018-07-19T19:04:05.470Z,36.33
2018-07-19T19:06:34.852Z,35.54
2018-07-19T19:09:06.218Z,36.59
2018-07-19T19:11:35.526Z,36.61
2018-07-19T19:14:04.979Z,36.45
2018-07-19T19:16:34.337Z,36.11
2018-07-19T19:19:03.970Z,36.25
2018-07-19T19:21:33.476Z,36.82
2018-07-19T19:24:03.205Z,37.22
2018-07-19T19:26:32.866Z,37.11
2018-07-19T19:29:02.499Z,37.18
2018-07-19T19:31:31.979Z,36.44
2018-07-19T19:34:01.324Z,37.37
2018-07-19T19:36:30.790Z,36.80
2018-07-19T19:39:00.237Z,37.23
2018-07-19T19:41:29.600Z,38.19
2018-07-19T19:43:58.924Z,37.46
2018-07-19T19:46:28.838Z,37.59
2018-07-19T19:48:58.219Z,38.39
2018-07-19T19:51:27.550Z,38.56
2018-07-19T19:53:59.914Z,37.99
2018-07-19T19:56:29.280Z,38.41
2018-07-19T19:58:58.626Z,38.95
2018-07-19T20:01:27.987Z,39.00
2018-07-19T20:03:57.336Z,38.64
2018-07-19T20:06:26.795Z,38.66
2018-07-19T20:08:56.288Z,38.80
2018-07-19T20:11:25.799Z,39.02
2018-07-19T20:13:55.416Z,39.95
2018-07-19T20:16:24.954Z,39.30
2018-07-19T20:18:54.356Z,40.26
2018-07-19T20:21:24.404Z,40.57
2018-07-19T20:23:54.040Z,40.42
2018-07-19T20:26:23.719Z,40.56
2018-07-19T20:28:53.542Z,41.26
2018-07-19T20:31:22.966Z,40.75
2018-07-19T20:33:52.227Z,41.20
2018-07-19T20:36:21.567Z,40.81
2018-07-19T20:38:50.908Z,40.92
2018-07-19T20:41:20.466Z,40.78
2018-07-19T20:43:49.906Z,40.98
2018-07-19T20:46:19.872Z,41.85
2018-07-19T20:48:49.256Z,41.93
2018-07-19T20:51:19.186Z,41.81
2018-07-19T20:53:48.550Z,41.46
2018-07-19T20:56:17.842Z,41.85
2018-07-19T20:58:47.190Z,41.37
2018-07-19T21:01:16.555Z,41.19
2018-07-19T21:03:45.884Z,42.10
2018-07-19T21:06:15.422Z,41.76
2018-07-19T21:08:44.747Z,41.86
2018-07-19T21:11:14.222Z,41.34
2018-07-19T21:13:44.280Z,41.83
2018-07-19T21:16:13.603Z,41.33
2018-07-19T21:18:43.177Z,40.91
2018-07-19T21:21:12.553Z,41.60
2018-07-19T21:23:41.946Z,41.62
2018-07-19T21:26:11.314Z,40.68
2018-07-19T21:28:40.700Z,41.20
2018-07-19T21:31:10.062Z,41.13
2018-07-19T21:33:39.424Z,41.78
2018-07-19T21:36:09.194Z,41.80
2018-07-19T21:38:38.476Z,41.64
2018-07-19T21:41:07.780Z,42.57
2018-07-19T21:43:37.227Z,42.51
2018-07-19T21:46:06.918Z,42.92
2018-07-19T21:48:36.498Z,42.20
2018-07-19T21:51:05.979Z,42.15
2018-07-19T21:53:35.390Z,42.80
2018-07-19T21:56:04.732Z,42.63
2018-07-19T21:58:34.216Z,42.65
2018-07-19T22:01:08.758Z,42.29
2018-07-19T22:03:38.198Z,43.20
2018-07-19T22:06:07.810Z,42.72
2018-07-19T22:08:37.206Z,42.35
2018-07-19T22:11:06.658Z,42.59
2018-07-19T22:13:36.026Z,43.03
2018-07-19T22:16:05.451Z,43.12
2018-07-19T22:18:35.214Z,43.21
2018-07-19T22:21:04.537Z,43.86
2018-07-19T22:23:33.855Z,44.31
2018-07-19T22:26:03.315Z,44.96
2018-07-19T22:28:32.620Z,44.77
2018-07-19T22:31:01.955Z,45.75
2018-07-19T22:33:31.255Z,44.94
2018-07-19T22:36:00.560Z,45.96
2018-07-19T22:38:29.867Z,45.63
2018-07-19T22:40:59.389Z,46.50
2018-07-19T22:43:28.726Z,47.15
2018-07-19T22:45:58.063Z,46.93
2018-07-19T22:48:27.497Z,47.37
2018-07-19T22:50:56.799Z,47.43
2018-07-19T22:53:26.128Z,47.42
2018-07-19T22:55:55.471Z,48.00
2018-07-19T22:58:24.731Z,46.60
2018-07-19T23:00:54.350Z,44.82
2018-07-19T23:03:23.858Z,45.28
2018-07-19T23:05:53.308Z,44.54
2018-07-19T23:08:22.651Z,45.76
2018-07-19T23:10:51.721Z,45.69
2018-07-19T23:13:21.497Z,46.33
2018-07-19T23:15:50.772Z,46.62
2018-07-19T23:18:19.838Z,47.06
2018-07-19T23:20:49.155Z,47.89
2018-07-19T23:23:18.449Z,47.33
2018-07-19T23:25:48.307Z,47.67
2018-07-19T23:28:17.681Z,47.12
2018-07-19T23:30:46.962Z,48.71
2018-07-19T23:33:16.278Z,48.13
2018-07-19T23:35:49.626Z,47.91
2018-07-19T23:38:23.138Z,46.89
2018-07-19T23:40:53.696Z,47.25
2018-07-19T23:43:34.876Z,47.16
2018-07-19T23:46:08.243Z,47.58
2018-07-19T23:48:37.587Z,46.89
2018-07-19T23:51:07.260Z,48.32
2018-07-19T23:53:36.567Z,47.73
2018-07-19T23:56:06.099Z,48.62
2018-07-19T23:58:35.402Z,49.10
